sensor_id;sensor_type;location;lat;lon;timestamp;P1;durP1;ratioP1;P2;durP2;ratioP2
14892;SDS011;7538;53.626;9.906;2022-10-17T00:03:26;9.98;;;6.07;;
14892;SDS011;7538;53.626;9.906;2022-10-17T00:05:53;12.65;;;6.35;;
14892;SDS011;7538;53.626;9.906;2022-10-17T00:08:19;11.15;;;6.35;;
14892;SDS011;7538;53.626;9.906;2022-10-17T00:10:54;10.13;;;5.78;;
14892;SDS011;7538;53.626;9.906;2022-10-17T00:13:21;10.13;;;6.72;;
14892;SDS011;7538;53.626;9.906;2022-10-17T00:15:48;9.75;;;6.28;;
14892;SDS011;7538;53.626;9.906;2022-10-17T00:18:15;9.95;;;6.25;;
14892;SDS011;7538;53.626;9.906;2022-10-17T00:20:43;10.70;;;5.97;;
14892;SDS011;7538;53.626;9.906;2022-10-17T00:23:10;10.02;;;6.60;;
14892;SDS011;7538;53.626;9.906;2022-10-17T00:25:36;8.75;;;6.25;;
14892;SDS011;7538;53.626;9.906;2022-10-17T00:28:04;13.20;;;6.80;;
14892;SDS011;7538;53.626;9.906;2022-10-17T00:30:31;11.55;;;7.00;;
14892;SDS011;7538;53.626;9.906;2022-10-17T00:32:58;8.18;;;5.93;;
14892;SDS011;7538;53.626;9.906;2022-10-17T00:35:24;8.18;;;5.93;;
14892;SDS011;7538;53.626;9.906;2022-10-17T00:37:53;6.55;;;5.90;;
14892;SDS011;7538;53.626;9.906;2022-10-17T00:40:19;7.53;;;6.35;;
14892;SDS011;7538;53.626;9.906;2022-10-17T00:42:46;10.85;;;6.00;;
14892;SDS011;7538;53.626;9.906;2022-10-17T00:45:17;10.18;;;6.55;;
14892;SDS011;7538;53.626;9.906;2022-10-17T00:47:47;12.38;;;6.53;;
14892;SDS011;7538;53.626;9.906;2022-10-17T00:50:19;8.25;;;5.72;;
14892;SDS011;7538;53.626;9.906;2022-10-17T00:52:47;10.88;;;5.53;;
14892;SDS011;7538;53.626;9.906;2022-10-17T00:55:17;8.00;;;6.07;;
14892;SDS011;7538;53.626;9.906;2022-10-17T00:57:47;13.93;;;6.40;;
14892;SDS011;7538;53.626;9.906;2022-10-17T01:00:16;10.00;;;5.93;;
14892;SDS011;7538;53.626;9.906;2022-10-17T01:02:44;8.73;;;6.13;;
14892;SDS011;7538;53.626;9.906;2022-10-17T01:05:11;6.78;;;5.35;;
14892;SDS011;7538;53.626;9.906;2022-10-17T01:07:38;11.63;;;5.50;;
14892;SDS011;7538;53.626;9.906;2022-10-17T01:10:06;10.88;;;6.20;;
14892;SDS011;7538;53.626;9.906;2022-10-17T01:12:38;7.70;;;5.85;;
14892;SDS011;7538;53.626;9.906;2022-10-17T01:15:12;6.65;;;5.30;;
14892;SDS011;7538;53.626;9.906;2022-10-17T01:17:52;7.82;;;5.63;;
14892;SDS011;7538;53.626;9.906;2022-10-17T01:20:35;8.63;;;5.40;;
14892;SDS011;7538;53.626;9.906;2022-10-17T01:23:26;6.63;;;5.25;;
14892;SDS011;7538;53.626;9.906;2022-10-17T01:26:09;10.60;;;5.47;;
14892;SDS011;7538;53.626;9.906;2022-10-17T01:28:52;5.40;;;4.90;;
14892;SDS011;7538;53.626;9.906;2022-10-17T01:31:35;7.85;;;5.25;;
14892;SDS011;7538;53.626;9.906;2022-10-17T01:34:09;9.35;;;5.75;;
14892;SDS011;7538;53.626;9.906;2022-10-17T01:36:41;8.00;;;5.63;;
14892;SDS011;7538;53.626;9.906;2022-10-17T01:39:14;6.65;;;4.97;;
14892;SDS011;7538;53.626;9.906;2022-10-17T01:41:48;7.32;;;5.00;;
14892;SDS011;7538;53.626;9.906;2022-10-17T01:44:18;8.57;;;5.10;;
14892;SDS011;7538;53.626;9.906;2022-10-17T01:46:49;10.15;;;5.05;;
14892;SDS011;7538;53.626;9.906;2022-10-17T01:49:20;6.28;;;4.50;;
14892;SDS011;7538;53.626;9.906;2022-10-17T01:51:51;6.80;;;4.50;;
14892;SDS011;7538;53.626;9.906;2022-10-17T01:54:22;7.65;;;5.45;;
14892;SDS011;7538;53.626;9.906;2022-10-17T01:56:54;9.30;;;4.50;;
14892;SDS011;7538;53.626;9.906;2022-10-17T01:59:24;7.32;;;4.10;;
14892;SDS011;7538;53.626;9.906;2022-10-17T02:01:57;5.55;;;4.80;;
14892;SDS011;7538;53.626;9.906;2022-10-17T02:04:25;7.43;;;4.18;;
14892;SDS011;7538;53.626;9.906;2022-10-17T02:06:53;7.55;;;4.30;;
14892;SDS011;7538;53.626;9.906;2022-10-17T02:09:20;10.93;;;4.07;;
14892;SDS011;7538;53.626;9.906;2022-10-17T02:11:51;5.43;;;3.90;;
14892;SDS011;7538;53.626;9.906;2022-10-17T02:14:31;7.82;;;4.50;;
14892;SDS011;7538;53.626;9.906;2022-10-17T02:17:12;6.43;;;3.90;;
14892;SDS011;7538;53.626;9.906;2022-10-17T02:19:49;7.53;;;4.00;;
14892;SDS011;7538;53.626;9.906;2022-10-17T02:22:26;8.55;;;4.30;;
14892;SDS011;7538;53.626;9.906;2022-10-17T02:25:02;5.35;;;3.95;;
14892;SDS011;7538;53.626;9.906;2022-10-17T02:27:37;6.28;;;3.97;;
14892;SDS011;7538;53.626;9.906;2022-10-17T02:33:14;7.28;;;3.90;;
14892;SDS011;7538;53.626;9.906;2022-10-17T02:35:46;8.73;;;4.15;;
14892;SDS011;7538;53.626;9.906;2022-10-17T02:38:16;3.78;;;3.33;;
14892;SDS011;7538;53.626;9.906;2022-10-17T02:40:44;5.88;;;3.83;;
14892;SDS011;7538;53.626;9.906;2022-10-17T02:43:14;4.93;;;3.53;;
14892;SDS011;7538;53.626;9.906;2022-10-17T02:45:41;4.80;;;3.83;;
14892;SDS011;7538;53.626;9.906;2022-10-17T02:48:08;4.18;;;3.50;;
14892;SDS011;7538;53.626;9.906;2022-10-17T02:50:44;6.38;;;3.47;;
14892;SDS011;7538;53.626;9.906;2022-10-17T02:53:19;8.07;;;4.03;;
14892;SDS011;7538;53.626;9.906;2022-10-17T02:55:50;4.78;;;3.47;;
14892;SDS011;7538;53.626;9.906;2022-10-17T02:58:24;6.35;;;3.90;;
14892;SDS011;7538;53.626;9.906;2022-10-17T03:00:53;4.05;;;3.38;;
14892;SDS011;7538;53.626;9.906;2022-10-17T03:03:21;5.45;;;3.58;;
14892;SDS011;7538;53.626;9.906;2022-10-17T03:05:50;6.93;;;3.88;;
14892;SDS011;7538;53.626;9.906;2022-10-17T03:08:18;5.55;;;3.92;;
14892;SDS011;7538;53.626;9.906;2022-10-17T03:10:45;7.75;;;4.03;;
14892;SDS011;7538;53.626;9.906;2022-10-17T03:13:12;4.47;;;3.97;;
14892;SDS011;7538;53.626;9.906;2022-10-17T03:15:39;5.70;;;3.70;;
14892;SDS011;7538;53.626;9.906;2022-10-17T03:18:07;6.75;;;4.00;;
14892;SDS011;7538;53.626;9.906;2022-10-17T03:20:33;7.47;;;3.88;;
14892;SDS011;7538;53.626;9.906;2022-10-17T03:23:02;7.93;;;3.75;;
14892;SDS011;7538;53.626;9.906;2022-10-17T03:25:28;6.35;;;3.45;;
14892;SDS011;7538;53.626;9.906;2022-10-17T03:27:56;4.03;;;3.53;;
14892;SDS011;7538;53.626;9.906;2022-10-17T03:30:24;4.63;;;3.78;;
14892;SDS011;7538;53.626;9.906;2022-10-17T03:32:51;6.80;;;4.65;;
14892;SDS011;7538;53.626;9.906;2022-10-17T03:35:17;7.93;;;3.80;;
14892;SDS011;7538;53.626;9.906;2022-10-17T03:37:44;4.95;;;3.88;;
14892;SDS011;7538;53.626;9.906;2022-10-17T03:40:12;5.60;;;3.72;;
14892;SDS011;7538;53.626;9.906;2022-10-17T03:42:39;5.43;;;3.72;;
14892;SDS011;7538;53.626;9.906;2022-10-17T03:45:06;7.15;;;3.70;;
14892;SDS011;7538;53.626;9.906;2022-10-17T03:47:34;6.05;;;3.95;;
14892;SDS011;7538;53.626;9.906;2022-10-17T03:50:00;4.07;;;3.67;;
14892;SDS011;7538;53.626;9.906;2022-10-17T03:52:27;5.70;;;4.05;;
14892;SDS011;7538;53.626;9.906;2022-10-17T03:54:54;5.25;;;4.20;;
14892;SDS011;7538;53.626;9.906;2022-10-17T03:57:22;6.15;;;3.53;;
14892;SDS011;7538;53.626;9.906;2022-10-17T03:59:49;5.20;;;4.00;;
14892;SDS011;7538;53.626;9.906;2022-10-17T04:02:16;5.05;;;3.47;;
14892;SDS011;7538;53.626;9.906;2022-10-17T04:04:43;4.25;;;3.40;;
14892;SDS011;7538;53.626;9.906;2022-10-17T04:07:09;6.10;;;3.88;;
14892;SDS011;7538;53.626;9.906;2022-10-17T04:09:36;3.50;;;3.20;;
14892;SDS011;7538;53.626;9.906;2022-10-17T04:12:03;4.97;;;3.70;;
14892;SDS011;7538;53.626;9.906;2022-10-17T04:14:31;4.90;;;3.50;;
14892;SDS011;7538;53.626;9.906;2022-10-17T04:16:58;4.80;;;3.47;;
14892;SDS011;7538;53.626;9.906;2022-10-17T04:19:25;4.47;;;3.53;;
14892;SDS011;7538;53.626;9.906;2022-10-17T04:21:52;5.07;;;3.67;;
14892;SDS011;7538;53.626;9.906;2022-10-17T04:24:18;4.80;;;3.65;;
14892;SDS011;7538;53.626;9.906;2022-10-17T04:26:47;5.72;;;3.70;;
14892;SDS011;7538;53.626;9.906;2022-10-17T04:29:15;5.05;;;3.13;;
14892;SDS011;7538;53.626;9.906;2022-10-17T04:31:43;6.28;;;3.45;;
14892;SDS011;7538;53.626;9.906;2022-10-17T04:34:10;3.92;;;3.50;;
14892;SDS011;7538;53.626;9.906;2022-10-17T04:36:38;7.22;;;3.60;;
14892;SDS011;7538;53.626;9.906;2022-10-17T04:39:05;3.83;;;3.47;;
14892;SDS011;7538;53.626;9.906;2022-10-17T04:41:31;6.18;;;3.72;;
14892;SDS011;7538;53.626;9.906;2022-10-17T04:43:58;6.53;;;3.47;;
14892;SDS011;7538;53.626;9.906;2022-10-17T04:46:25;4.03;;;3.60;;
14892;SDS011;7538;53.626;9.906;2022-10-17T04:48:53;5.40;;;3.63;;
14892;SDS011;7538;53.626;9.906;2022-10-17T04:51:20;5.00;;;3.50;;
14892;SDS011;7538;53.626;9.906;2022-10-17T04:53:47;5.20;;;3.53;;
14892;SDS011;7538;53.626;9.906;2022-10-17T04:56:15;3.70;;;3.40;;
14892;SDS011;7538;53.626;9.906;2022-10-17T04:58:43;6.93;;;3.83;;
14892;SDS011;7538;53.626;9.906;2022-10-17T05:01:11;5.38;;;3.80;;
14892;SDS011;7538;53.626;9.906;2022-10-17T05:03:40;9.73;;;3.92;;
14892;SDS011;7538;53.626;9.906;2022-10-17T05:06:09;5.00;;;3.63;;
14892;SDS011;7538;53.626;9.906;2022-10-17T05:08:37;4.68;;;3.47;;
14892;SDS011;7538;53.626;9.906;2022-10-17T05:11:04;3.63;;;3.17;;
14892;SDS011;7538;53.626;9.906;2022-10-17T05:13:40;3.67;;;3.38;;
14892;SDS011;7538;53.626;9.906;2022-10-17T05:16:06;3.42;;;3.00;;
14892;SDS011;7538;53.626;9.906;2022-10-17T05:18:33;3.72;;;3.42;;
14892;SDS011;7538;53.626;9.906;2022-10-17T05:21:01;3.42;;;3.10;;
14892;SDS011;7538;53.626;9.906;2022-10-17T05:23:30;6.47;;;3.55;;
14892;SDS011;7538;53.626;9.906;2022-10-17T05:25:57;4.07;;;3.75;;
14892;SDS011;7538;53.626;9.906;2022-10-17T05:28:23;4.35;;;3.95;;
14892;SDS011;7538;53.626;9.906;2022-10-17T05:30:50;3.83;;;3.35;;
14892;SDS011;7538;53.626;9.906;2022-10-17T05:33:17;4.30;;;3.20;;
14892;SDS011;7538;53.626;9.906;2022-10-17T05:35:44;4.45;;;3.42;;
14892;SDS011;7538;53.626;9.906;2022-10-17T05:38:10;4.30;;;3.45;;
14892;SDS011;7538;53.626;9.906;2022-10-17T05:40:38;3.63;;;3.25;;
14892;SDS011;7538;53.626;9.906;2022-10-17T05:43:05;4.75;;;3.80;;
14892;SDS011;7538;53.626;9.906;2022-10-17T05:45:32;6.15;;;3.65;;
14892;SDS011;7538;53.626;9.906;2022-10-17T05:47:59;5.43;;;3.60;;
14892;SDS011;7538;53.626;9.906;2022-10-17T05:50:25;3.67;;;3.25;;
14892;SDS011;7538;53.626;9.906;2022-10-17T05:52:52;7.25;;;3.70;;
14892;SDS011;7538;53.626;9.906;2022-10-17T05:55:19;5.13;;;3.80;;
14892;SDS011;7538;53.626;9.906;2022-10-17T05:57:47;3.92;;;3.55;;
14892;SDS011;7538;53.626;9.906;2022-10-17T06:00:16;4.97;;;3.90;;
14892;SDS011;7538;53.626;9.906;2022-10-17T06:02:44;5.78;;;3.58;;
14892;SDS011;7538;53.626;9.906;2022-10-17T06:05:11;6.78;;;3.92;;
14892;SDS011;7538;53.626;9.906;2022-10-17T06:07:38;4.88;;;3.40;;
14892;SDS011;7538;53.626;9.906;2022-10-17T06:10:05;3.80;;;3.50;;
14892;SDS011;7538;53.626;9.906;2022-10-17T06:12:32;4.65;;;3.78;;
14892;SDS011;7538;53.626;9.906;2022-10-17T06:15:00;5.82;;;3.67;;
14892;SDS011;7538;53.626;9.906;2022-10-17T06:17:27;5.80;;;3.80;;
14892;SDS011;7538;53.626;9.906;2022-10-17T06:19:54;5.35;;;3.40;;
14892;SDS011;7538;53.626;9.906;2022-10-17T06:22:23;5.68;;;3.63;;
14892;SDS011;7538;53.626;9.906;2022-10-17T06:24:50;6.40;;;3.47;;
14892;SDS011;7538;53.626;9.906;2022-10-17T06:27:17;5.28;;;3.50;;
14892;SDS011;7538;53.626;9.906;2022-10-17T06:29:44;4.13;;;2.97;;
14892;SDS011;7538;53.626;9.906;2022-10-17T06:32:12;5.35;;;3.70;;
14892;SDS011;7538;53.626;9.906;2022-10-17T06:34:39;4.15;;;3.30;;
14892;SDS011;7538;53.626;9.906;2022-10-17T06:37:06;4.10;;;3.70;;
14892;SDS011;7538;53.626;9.906;2022-10-17T06:39:33;6.28;;;3.55;;
14892;SDS011;7538;53.626;9.906;2022-10-17T06:42:00;4.97;;;3.22;;
14892;SDS011;7538;53.626;9.906;2022-10-17T06:44:28;7.22;;;3.65;;
14892;SDS011;7538;53.626;9.906;2022-10-17T06:46:56;5.43;;;3.65;;
14892;SDS011;7538;53.626;9.906;2022-10-17T06:49:24;5.60;;;3.90;;
14892;SDS011;7538;53.626;9.906;2022-10-17T06:51:51;4.28;;;3.40;;
14892;SDS011;7538;53.626;9.906;2022-10-17T06:54:18;5.07;;;3.40;;
14892;SDS011;7538;53.626;9.906;2022-10-17T06:56:45;5.75;;;3.90;;
14892;SDS011;7538;53.626;9.906;2022-10-17T06:59:12;7.97;;;3.80;;
14892;SDS011;7538;53.626;9.906;2022-10-17T07:01:39;4.93;;;3.58;;
14892;SDS011;7538;53.626;9.906;2022-10-17T07:04:06;7.35;;;3.63;;
14892;SDS011;7538;53.626;9.906;2022-10-17T07:06:34;6.95;;;4.22;;
14892;SDS011;7538;53.626;9.906;2022-10-17T07:09:01;6.55;;;3.97;;
14892;SDS011;7538;53.626;9.906;2022-10-17T07:11:30;4.03;;;3.63;;
14892;SDS011;7538;53.626;9.906;2022-10-17T07:13:57;4.60;;;3.30;;
14892;SDS011;7538;53.626;9.906;2022-10-17T07:16:24;4.65;;;3.90;;
14892;SDS011;7538;53.626;9.906;2022-10-17T07:18:51;7.07;;;3.92;;
14892;SDS011;7538;53.626;9.906;2022-10-17T07:21:19;3.80;;;3.45;;
14892;SDS011;7538;53.626;9.906;2022-10-17T07:23:47;5.80;;;3.60;;
14892;SDS011;7538;53.626;9.906;2022-10-17T07:26:15;5.10;;;3.70;;
14892;SDS011;7538;53.626;9.906;2022-10-17T07:28:43;6.25;;;3.42;;
14892;SDS011;7538;53.626;9.906;2022-10-17T07:31:12;3.92;;;3.20;;
14892;SDS011;7538;53.626;9.906;2022-10-17T07:33:40;5.03;;;3.75;;
14892;SDS011;7538;53.626;9.906;2022-10-17T07:36:07;6.13;;;3.42;;
14892;SDS011;7538;53.626;9.906;2022-10-17T07:38:34;3.40;;;3.17;;
14892;SDS011;7538;53.626;9.906;2022-10-17T07:41:03;5.28;;;3.50;;
14892;SDS011;7538;53.626;9.906;2022-10-17T07:43:32;4.25;;;3.03;;
14892;SDS011;7538;53.626;9.906;2022-10-17T07:46:01;5.95;;;3.20;;
14892;SDS011;7538;53.626;9.906;2022-10-17T07:48:29;4.32;;;3.13;;
14892;SDS011;7538;53.626;9.906;2022-10-17T07:50:56;5.97;;;3.55;;
14892;SDS011;7538;53.626;9.906;2022-10-17T07:53:23;6.13;;;3.28;;
14892;SDS011;7538;53.626;9.906;2022-10-17T07:55:49;3.20;;;2.90;;
14892;SDS011;7538;53.626;9.906;2022-10-17T07:58:17;4.55;;;2.70;;
14892;SDS011;7538;53.626;9.906;2022-10-17T08:00:44;3.28;;;2.50;;
14892;SDS011;7538;53.626;9.906;2022-10-17T08:03:12;3.67;;;2.90;;
14892;SDS011;7538;53.626;9.906;2022-10-17T08:05:39;4.15;;;2.70;;
14892;SDS011;7538;53.626;9.906;2022-10-17T08:08:05;4.55;;;2.88;;
14892;SDS011;7538;53.626;9.906;2022-10-17T08:10:32;4.45;;;2.88;;
14892;SDS011;7538;53.626;9.906;2022-10-17T08:12:59;3.63;;;3.10;;
14892;SDS011;7538;53.626;9.906;2022-10-17T08:15:28;3.00;;;2.70;;
14892;SDS011;7538;53.626;9.906;2022-10-17T08:17:55;4.20;;;2.80;;
14892;SDS011;7538;53.626;9.906;2022-10-17T08:20:22;4.15;;;2.95;;
14892;SDS011;7538;53.626;9.906;2022-10-17T08:22:52;3.92;;;3.15;;
14892;SDS011;7538;53.626;9.906;2022-10-17T08:25:19;5.07;;;3.13;;
14892;SDS011;7538;53.626;9.906;2022-10-17T08:27:46;5.90;;;3.25;;
14892;SDS011;7538;53.626;9.906;2022-10-17T08:30:13;3.47;;;2.97;;
14892;SDS011;7538;53.626;9.906;2022-10-17T08:32:41;4.57;;;3.00;;
14892;SDS011;7538;53.626;9.906;2022-10-17T08:35:08;5.63;;;3.00;;
14892;SDS011;7538;53.626;9.906;2022-10-17T08:37:35;5.25;;;3.38;;
14892;SDS011;7538;53.626;9.906;2022-10-17T08:40:02;5.63;;;3.22;;
14892;SDS011;7538;53.626;9.906;2022-10-17T08:42:33;4.57;;;3.40;;
14892;SDS011;7538;53.626;9.906;2022-10-17T08:45:15;3.50;;;3.20;;
14892;SDS011;7538;53.626;9.906;2022-10-17T08:47:50;3.28;;;3.00;;
14892;SDS011;7538;53.626;9.906;2022-10-17T08:50:21;7.95;;;3.13;;
14892;SDS011;7538;53.626;9.906;2022-10-17T08:52:54;5.75;;;3.28;;
14892;SDS011;7538;53.626;9.906;2022-10-17T08:55:27;4.05;;;3.28;;
14892;SDS011;7538;53.626;9.906;2022-10-17T08:57:58;6.00;;;3.00;;
14892;SDS011;7538;53.626;9.906;2022-10-17T09:00:25;4.38;;;3.20;;
14892;SDS011;7538;53.626;9.906;2022-10-17T09:03:04;5.15;;;3.50;;
14892;SDS011;7538;53.626;9.906;2022-10-17T09:05:45;5.28;;;3.42;;
14892;SDS011;7538;53.626;9.906;2022-10-17T09:08:21;4.50;;;3.45;;
14892;SDS011;7538;53.626;9.906;2022-10-17T09:10:56;5.53;;;3.25;;
14892;SDS011;7538;53.626;9.906;2022-10-17T09:13:31;4.50;;;3.03;;
14892;SDS011;7538;53.626;9.906;2022-10-17T09:16:15;3.28;;;2.97;;
14892;SDS011;7538;53.626;9.906;2022-10-17T09:19:00;4.13;;;3.63;;
14892;SDS011;7538;53.626;9.906;2022-10-17T09:21:35;4.93;;;3.50;;
14892;SDS011;7538;53.626;9.906;2022-10-17T09:24:09;7.43;;;3.38;;
14892;SDS011;7538;53.626;9.906;2022-10-17T09:26:43;5.35;;;3.20;;
14892;SDS011;7538;53.626;9.906;2022-10-17T09:29:14;3.78;;;3.30;;
14892;SDS011;7538;53.626;9.906;2022-10-17T09:31:44;4.47;;;2.90;;
14892;SDS011;7538;53.626;9.906;2022-10-17T09:34:16;3.92;;;3.10;;
14892;SDS011;7538;53.626;9.906;2022-10-17T09:36:43;3.45;;;2.78;;
14892;SDS011;7538;53.626;9.906;2022-10-17T09:39:11;4.97;;;3.30;;
14892;SDS011;7538;53.626;9.906;2022-10-17T09:41:40;7.55;;;3.90;;
14892;SDS011;7538;53.626;9.906;2022-10-17T09:46:47;3.33;;;2.97;;
14892;SDS011;7538;53.626;9.906;2022-10-17T09:49:32;4.15;;;2.72;;
14892;SDS011;7538;53.626;9.906;2022-10-17T09:52:00;8.05;;;3.72;;
14892;SDS011;7538;53.626;9.906;2022-10-17T09:54:32;6.32;;;3.30;;
14892;SDS011;7538;53.626;9.906;2022-10-17T09:57:06;6.18;;;3.40;;
14892;SDS011;7538;53.626;9.906;2022-10-17T09:59:35;4.30;;;3.28;;
14892;SDS011;7538;53.626;9.906;2022-10-17T10:02:07;6.22;;;3.60;;
14892;SDS011;7538;53.626;9.906;2022-10-17T10:04:46;5.30;;;3.35;;
14892;SDS011;7538;53.626;9.906;2022-10-17T10:07:21;6.00;;;3.25;;
14892;SDS011;7538;53.626;9.906;2022-10-17T10:09:48;4.60;;;3.20;;
14892;SDS011;7538;53.626;9.906;2022-10-17T10:12:17;5.55;;;3.83;;
14892;SDS011;7538;53.626;9.906;2022-10-17T10:14:46;7.65;;;4.03;;
14892;SDS011;7538;53.626;9.906;2022-10-17T10:17:24;4.90;;;3.50;;
14892;SDS011;7538;53.626;9.906;2022-10-17T10:20:02;5.78;;;3.40;;
14892;SDS011;7538;53.626;9.906;2022-10-17T10:23:03;6.82;;;3.45;;
14892;SDS011;7538;53.626;9.906;2022-10-17T10:25:31;6.28;;;3.30;;
14892;SDS011;7538;53.626;9.906;2022-10-17T10:27:59;5.70;;;3.60;;
14892;SDS011;7538;53.626;9.906;2022-10-17T10:30:28;6.85;;;3.40;;
14892;SDS011;7538;53.626;9.906;2022-10-17T10:32:56;7.38;;;3.97;;
14892;SDS011;7538;53.626;9.906;2022-10-17T10:35:29;7.60;;;3.78;;
14892;SDS011;7538;53.626;9.906;2022-10-17T10:37:58;4.43;;;3.03;;
14892;SDS011;7538;53.626;9.906;2022-10-17T10:40:30;8.70;;;3.80;;
14892;SDS011;7538;53.626;9.906;2022-10-17T10:43:01;4.85;;;3.58;;
14892;SDS011;7538;53.626;9.906;2022-10-17T10:45:38;5.10;;;3.78;;
14892;SDS011;7538;53.626;9.906;2022-10-17T10:48:12;8.55;;;3.58;;
14892;SDS011;7538;53.626;9.906;2022-10-17T10:50:48;7.03;;;4.00;;
14892;SDS011;7538;53.626;9.906;2022-10-17T10:53:24;8.82;;;3.83;;
14892;SDS011;7538;53.626;9.906;2022-10-17T10:56:00;5.65;;;3.40;;
14892;SDS011;7538;53.626;9.906;2022-10-17T10:58:36;7.53;;;3.35;;
14892;SDS011;7538;53.626;9.906;2022-10-17T11:01:10;5.05;;;3.40;;
14892;SDS011;7538;53.626;9.906;2022-10-17T11:03:46;8.00;;;3.88;;
14892;SDS011;7538;53.626;9.906;2022-10-17T11:06:27;5.15;;;3.40;;
14892;SDS011;7538;53.626;9.906;2022-10-17T11:09:00;4.32;;;2.95;;
14892;SDS011;7538;53.626;9.906;2022-10-17T11:11:46;5.55;;;3.22;;
14892;SDS011;7538;53.626;9.906;2022-10-17T11:14:18;4.32;;;3.20;;
14892;SDS011;7538;53.626;9.906;2022-10-17T11:16:53;7.30;;;3.40;;
14892;SDS011;7538;53.626;9.906;2022-10-17T11:19:27;10.13;;;3.50;;
14892;SDS011;7538;53.626;9.906;2022-10-17T11:22:04;5.35;;;3.67;;
14892;SDS011;7538;53.626;9.906;2022-10-17T11:24:37;4.47;;;3.30;;
14892;SDS011;7538;53.626;9.906;2022-10-17T11:27:06;6.28;;;3.30;;
14892;SDS011;7538;53.626;9.906;2022-10-17T11:29:34;5.53;;;3.22;;
14892;SDS011;7538;53.626;9.906;2022-10-17T11:32:04;6.60;;;3.92;;
14892;SDS011;7538;53.626;9.906;2022-10-17T11:34:37;4.72;;;3.88;;
14892;SDS011;7538;53.626;9.906;2022-10-17T11:37:11;5.53;;;3.70;;
14892;SDS011;7538;53.626;9.906;2022-10-17T11:39:43;4.55;;;3.58;;
14892;SDS011;7538;53.626;9.906;2022-10-17T11:42:14;6.35;;;3.67;;
14892;SDS011;7538;53.626;9.906;2022-10-17T11:44:44;4.75;;;3.63;;
14892;SDS011;7538;53.626;9.906;2022-10-17T11:47:17;4.97;;;3.70;;
14892;SDS011;7538;53.626;9.906;2022-10-17T11:49:57;4.85;;;3.25;;
14892;SDS011;7538;53.626;9.906;2022-10-17T11:52:32;5.45;;;3.38;;
14892;SDS011;7538;53.626;9.906;2022-10-17T11:55:02;3.55;;;3.25;;
14892;SDS011;7538;53.626;9.906;2022-10-17T11:57:41;7.43;;;3.30;;
14892;SDS011;7538;53.626;9.906;2022-10-17T12:03:14;3.92;;;3.50;;
14892;SDS011;7538;53.626;9.906;2022-10-17T12:05:49;5.40;;;3.38;;
14892;SDS011;7538;53.626;9.906;2022-10-17T12:08:24;4.22;;;3.35;;
14892;SDS011;7538;53.626;9.906;2022-10-17T12:10:59;5.32;;;4.20;;
14892;SDS011;7538;53.626;9.906;2022-10-17T12:13:48;3.88;;;3.50;;
14892;SDS011;7538;53.626;9.906;2022-10-17T12:22:22;6.13;;;4.72;;
14892;SDS011;7538;53.626;9.906;2022-10-17T12:24:56;6.47;;;4.57;;
14892;SDS011;7538;53.626;9.906;2022-10-17T12:27:32;5.25;;;4.78;;
14892;SDS011;7538;53.626;9.906;2022-10-17T12:30:14;6.28;;;5.40;;
14892;SDS011;7538;53.626;9.906;2022-10-17T12:32:53;7.18;;;5.20;;
14892;SDS011;7538;53.626;9.906;2022-10-17T12:35:28;6.78;;;5.45;;
14892;SDS011;7538;53.626;9.906;2022-10-17T12:38:01;5.75;;;5.25;;
14892;SDS011;7538;53.626;9.906;2022-10-17T12:40:50;6.38;;;5.50;;
14892;SDS011;7538;53.626;9.906;2022-10-17T12:43:34;7.95;;;5.82;;
14892;SDS011;7538;53.626;9.906;2022-10-17T12:46:03;6.50;;;5.90;;
14892;SDS011;7538;53.626;9.906;2022-10-17T12:54:30;7.32;;;6.63;;
14892;SDS011;7538;53.626;9.906;2022-10-17T12:57:08;10.40;;;6.53;;
14892;SDS011;7538;53.626;9.906;2022-10-17T12:59:42;6.90;;;6.20;;
14892;SDS011;7538;53.626;9.906;2022-10-17T13:02:11;9.57;;;6.15;;
14892;SDS011;7538;53.626;9.906;2022-10-17T13:04:44;7.78;;;6.45;;
14892;SDS011;7538;53.626;9.906;2022-10-17T13:07:12;8.73;;;6.68;;
14892;SDS011;7538;53.626;9.906;2022-10-17T13:09:44;8.50;;;7.70;;
14892;SDS011;7538;53.626;9.906;2022-10-17T13:12:13;7.38;;;6.70;;
14892;SDS011;7538;53.626;9.906;2022-10-17T13:14:44;10.15;;;6.63;;
14892;SDS011;7538;53.626;9.906;2022-10-17T13:17:19;10.98;;;6.60;;
14892;SDS011;7538;53.626;9.906;2022-10-17T13:19:49;13.23;;;8.60;;
14892;SDS011;7538;53.626;9.906;2022-10-17T13:22:17;12.20;;;8.55;;
14892;SDS011;7538;53.626;9.906;2022-10-17T13:24:45;10.77;;;8.95;;
14892;SDS011;7538;53.626;9.906;2022-10-17T13:27:22;11.82;;;7.65;;
14892;SDS011;7538;53.626;9.906;2022-10-17T13:29:51;8.20;;;7.22;;
14892;SDS011;7538;53.626;9.906;2022-10-17T13:32:20;10.23;;;8.85;;
14892;SDS011;7538;53.626;9.906;2022-10-17T13:37:34;11.88;;;9.27;;
14892;SDS011;7538;53.626;9.906;2022-10-17T13:40:01;10.13;;;8.93;;
14892;SDS011;7538;53.626;9.906;2022-10-17T13:42:36;11.48;;;9.95;;
14892;SDS011;7538;53.626;9.906;2022-10-17T13:45:09;10.02;;;8.90;;
14892;SDS011;7538;53.626;9.906;2022-10-17T13:47:43;12.02;;;9.15;;
14892;SDS011;7538;53.626;9.906;2022-10-17T13:50:15;11.57;;;9.48;;
14892;SDS011;7538;53.626;9.906;2022-10-17T13:52:48;10.20;;;9.15;;
14892;SDS011;7538;53.626;9.906;2022-10-17T13:55:30;11.13;;;10.02;;
14892;SDS011;7538;53.626;9.906;2022-10-17T13:58:08;11.60;;;10.45;;
14892;SDS011;7538;53.626;9.906;2022-10-17T14:00:40;12.70;;;9.27;;
14892;SDS011;7538;53.626;9.906;2022-10-17T14:03:07;15.30;;;10.80;;
14892;SDS011;7538;53.626;9.906;2022-10-17T14:05:34;11.88;;;10.10;;
14892;SDS011;7538;53.626;9.906;2022-10-17T14:08:01;15.48;;;11.57;;
14892;SDS011;7538;53.626;9.906;2022-10-17T14:10:29;14.23;;;10.80;;
14892;SDS011;7538;53.626;9.906;2022-10-17T14:12:58;17.08;;;11.95;;
14892;SDS011;7538;53.626;9.906;2022-10-17T14:15:30;11.95;;;10.63;;
14892;SDS011;7538;53.626;9.906;2022-10-17T14:17:59;14.30;;;12.70;;
14892;SDS011;7538;53.626;9.906;2022-10-17T14:20:29;12.90;;;11.50;;
14892;SDS011;7538;53.626;9.906;2022-10-17T14:22:56;12.40;;;11.18;;
14892;SDS011;7538;53.626;9.906;2022-10-17T14:25:31;19.33;;;12.45;;
14892;SDS011;7538;53.626;9.906;2022-10-17T14:28:00;12.98;;;11.52;;
14892;SDS011;7538;53.626;9.906;2022-10-17T14:30:34;14.07;;;11.25;;
14892;SDS011;7538;53.626;9.906;2022-10-17T14:33:04;12.30;;;11.10;;
14892;SDS011;7538;53.626;9.906;2022-10-17T14:35:32;14.32;;;11.93;;
14892;SDS011;7538;53.626;9.906;2022-10-17T14:38:00;18.75;;;13.98;;
14892;SDS011;7538;53.626;9.906;2022-10-17T14:40:29;12.63;;;11.10;;
14892;SDS011;7538;53.626;9.906;2022-10-17T14:42:57;14.25;;;12.63;;
14892;SDS011;7538;53.626;9.906;2022-10-17T14:45:28;13.85;;;12.05;;
14892;SDS011;7538;53.626;9.906;2022-10-17T14:48:01;12.30;;;11.10;;
14892;SDS011;7538;53.626;9.906;2022-10-17T14:50:30;13.18;;;11.75;;
14892;SDS011;7538;53.626;9.906;2022-10-17T14:53:00;14.60;;;13.10;;
14892;SDS011;7538;53.626;9.906;2022-10-17T14:55:29;15.32;;;12.05;;
14892;SDS011;7538;53.626;9.906;2022-10-17T14:57:58;16.70;;;12.23;;
14892;SDS011;7538;53.626;9.906;2022-10-17T15:00:24;19.63;;;13.20;;
14892;SDS011;7538;53.626;9.906;2022-10-17T15:02:52;16.17;;;13.25;;
14892;SDS011;7538;53.626;9.906;2022-10-17T15:05:21;16.88;;;13.15;;
14892;SDS011;7538;53.626;9.906;2022-10-17T15:07:49;14.32;;;12.93;;
14892;SDS011;7538;53.626;9.906;2022-10-17T15:10:22;13.93;;;12.32;;
14892;SDS011;7538;53.626;9.906;2022-10-17T15:12:52;13.27;;;11.70;;
14892;SDS011;7538;53.626;9.906;2022-10-17T15:15:19;19.20;;;13.60;;
14892;SDS011;7538;53.626;9.906;2022-10-17T15:17:45;14.80;;;13.27;;
14892;SDS011;7538;53.626;9.906;2022-10-17T15:20:13;18.65;;;14.95;;
14892;SDS011;7538;53.626;9.906;2022-10-17T15:22:42;18.35;;;14.45;;
14892;SDS011;7538;53.626;9.906;2022-10-17T15:25:10;16.48;;;13.88;;
14892;SDS011;7538;53.626;9.906;2022-10-17T15:27:36;17.35;;;14.95;;
14892;SDS011;7538;53.626;9.906;2022-10-17T15:30:05;17.77;;;13.30;;
14892;SDS011;7538;53.626;9.906;2022-10-17T15:32:41;16.85;;;15.15;;
14892;SDS011;7538;53.626;9.906;2022-10-17T15:35:08;16.98;;;15.27;;
14892;SDS011;7538;53.626;9.906;2022-10-17T15:37:35;16.80;;;14.93;;
14892;SDS011;7538;53.626;9.906;2022-10-17T15:40:04;19.60;;;16.58;;
14892;SDS011;7538;53.626;9.906;2022-10-17T15:42:31;15.77;;;13.93;;